Sunlight Express — 3FMK7 — position and weather

sailwx.info

Track history (hours):
 
Tides and Currents Weather Stations Pressure Air Temp Water Temp Dewpoint Dewpoint Depression Visibility Wind Speed Wind Dir Waves Ship Positions

Sunlight Express

Last reported at 2018-Jun-13 13:00 UTC. Time now 2018-Jun-19 02:51 UTC.
Position N 02°36' W 080°00'.

Length 182 m; draft 12 m.

Type: Ship. MMSI: 351001000.

Wind from 210 at 16 knots

Air temperature 26.0 ° C
Visibility: greater than 5.4 NM
Dewpoint 24.6 ° C

Date/timePositionNaut miles runAvg speedWind from/ knotsBaromVisibWave heightAir tempDewpointWater temp
2018-Jun-13 13:00N 02°36' W 080°00'395 8.9 210 / 16 5.4 26.024.6
2018-Jun-11 16:29N 09°11' W 079°52'3 7.2
2018-Jun-11 16:00N 09°12' W 079°55'1 2.4
2018-Jun-11 15:25N 09°13' W 079°56'0 0.1
2018-Jun-11 14:58N 09°13' W 079°56'0 0.1
2018-Jun-11 14:28N 09°13' W 079°56'0 0.1
2018-Jun-11 13:58N 09°13' W 079°56'0 0.0
2018-Jun-11 13:28N 09°13' W 079°56'0 0.0
2018-Jun-11 12:58N 09°13' W 079°56'0 0.0
2018-Jun-11 12:28N 09°13' W 079°56'0 0.0
2018-Jun-11 12:00N 09°13' W 079°56'0 0.5
2018-Jun-11 11:30N 09°14' W 079°56'2 5.0
2018-Jun-11 11:00N 09°16' W 079°55'0 0.6
2018-Jun-11 10:30N 09°16' W 079°55'0 0.4
2018-Jun-11 10:00N 09°17' W 079°55'0 0.3
2018-Jun-11 09:30N 09°17' W 079°55'1 1.4
2018-Jun-11 09:00N 09°17' W 079°55'3 5.1
2018-Jun-11 08:29N 09°20' W 079°55'2 5.2
2018-Jun-11 08:00N 09°22' W 079°56'0 0.1
2018-Jun-11 07:30N 09°22' W 079°56'0 0.0
2018-Jun-11 07:00N 09°22' W 079°56'0 0.0
2018-Jun-11 06:30N 09°22' W 079°56'0 0.0
2018-Jun-11 06:00N 09°22' W 079°56'0 0.0
2018-Jun-11 05:28N 09°22' W 079°56'0 0.0
2018-Jun-11 05:00N 09°22' W 079°56'0 0.0
2018-Jun-11 04:30N 09°22' W 079°56'0 0.0
2018-Jun-11 03:58N 09°22' W 079°56'0 0.1
2018-Jun-11 03:30N 09°22' W 079°56'0 0.0
2018-Jun-11 03:00N 09°22' W 079°56'0 0.0
2018-Jun-11 02:30N 09°22' W 079°56'0 0.0
2018-Jun-11 02:00N 09°22' W 079°56'0 0.0
2018-Jun-11 01:30N 09°22' W 079°56'0 0.1
2018-Jun-11 01:00N 09°22' W 079°56'0 0.1
2018-Jun-11 00:30N 09°22' W 079°56'0 0.0
2018-Jun-10 23:59N 09°22' W 079°56'0 0.0
2018-Jun-10 23:29N 09°22' W 079°56'0 0.1
2018-Jun-10 23:00N 09°22' W 079°56'0 0.1
2018-Jun-10 22:29N 09°22' W 079°56'0 0.0
2018-Jun-10 22:00N 09°22' W 079°56'0 0.0
2018-Jun-10 21:27N 09°22' W 079°56'0 0.0
2018-Jun-10 20:59N 09°22' W 079°56'0 0.0
2018-Jun-10 20:30N 09°22' W 079°56'0 0.1
2018-Jun-10 20:00N 09°22' W 079°56'0 0.0
2018-Jun-10 19:30N 09°22' W 079°56'0 0.1
2018-Jun-10 19:00N 09°22' W 079°56'0 0.0
2018-Jun-10 18:30N 09°22' W 079°56'0 0.1
2018-Jun-10 18:00N 09°22' W 079°56'0 0.5
2018-Jun-10 17:30N 09°23' W 079°55'2 4.1
2018-Jun-10 17:00N 09°25' W 079°55'2 3.1
2018-Jun-10 16:30N 09°26' W 079°56'0 0.2
2018-Jun-10 16:00N 09°26' W 079°56'0 0.0
2018-Jun-10 15:27N 09°26' W 079°56'0 0.0
2018-Jun-10 15:00N 09°26' W 079°56'0 0.0
2018-Jun-10 14:27N 09°26' W 079°56'0 0.0
2018-Jun-10 13:27N 09°26' W 079°56'0 0.0
2018-Jun-10 13:00N 09°26' W 079°56'0 0.0
2018-Jun-10 12:30N 09°26' W 079°56'0 0.0
2018-Jun-10 11:57N 09°26' W 079°56'0 0.0
2018-Jun-10 11:30N 09°26' W 079°56'0 0.0
2018-Jun-10 11:00N 09°26' W 079°56'0 0.0
2018-Jun-10 10:30N 09°26' W 079°56'0 0.0
2018-Jun-10 10:00N 09°26' W 079°56'0 0.0
2018-Jun-10 09:21N 09°26' W 079°56'0 0.1
2018-Jun-10 09:00N 09°26' W 079°56'0 0.5
2018-Jun-10 08:31N 09°26' W 079°56'2 4.4
2018-Jun-10 08:00N 09°28' W 079°55'5 9.9
2018-Jun-10 07:30N 09°33' W 079°53'510.7
2018-Jun-10 06:59N 09°38' W 079°52'46125.6
2018-Jun-09 13:00N 17°18' W 079°24'   230 / 221013.0 5.4 27.024.1
2018-Jun-06 13:00N 25°00' W 087°30'24110.1 190 / 121015.010.8 28.023.7
2018-Jun-05 13:00N 26°48' W 091°30'20113.0 190 / 141013.510.8 28.025.2
2018-Jun-04 21:33N 28°56' W 094°25'212.4
2018-Jun-04 21:23N 28°58' W 094°25'812.3
2018-Jun-04 20:46N 29°06' W 094°26'310.8
2018-Jun-04 20:30N 29°08' W 094°27'611.7
2018-Jun-04 20:00N 29°12' W 094°31'611.2
2018-Jun-04 19:30N 29°16' W 094°36'510.6
2018-Jun-04 19:00N 29°20' W 094°40'510.3
2018-Jun-04 18:31N 29°21' W 094°46'5 9.6
2018-Jun-04 18:00N 29°25' W 094°49'5 9.6
2018-Jun-04 17:30N 29°29' W 094°52'5 9.3
2018-Jun-04 16:59N 29°33' W 094°55'5 9.7
2018-Jun-04 16:30N 29°37' W 094°57'5 9.2
2018-Jun-04 16:00N 29°41' W 094°59'4 7.2
2018-Jun-04 15:27N 29°44' W 095°03'3 5.8
2018-Jun-04 14:57N 29°45' W 095°06'2 5.6
2018-Jun-04 14:30N 29°44' W 095°08'3 5.1
2018-Jun-04 13:58N 29°45' W 095°11'2 3.5
2018-Jun-04 13:18N 29°43' W 095°14'0 0.0
2018-Jun-04 11:39N 29°43' W 095°14'0 0.0
2018-Jun-04 03:36N 29°43' W 095°14'0 0.0
2018-Jun-04 02:45N 29°43' W 095°14'0 0.0
2018-Jun-03 14:12N 29°43' W 095°14'0 0.0
2018-Jun-03 13:57N 29°43' W 095°14'  
Track history (hours):
 
Tides and Currents Weather Stations Pressure Air Temp Water Temp Dewpoint Dewpoint Depression Visibility Wind Speed Wind Dir Waves Ship Positions

Sunlight Express

Last reported at 2018-Jun-13 13:00 UTC. Time now 2018-Jun-19 02:51 UTC.
Position N 02°36' W 080°00'.

Length 182 m; draft 12 m.

Type: Ship. MMSI: 351001000.

Wind from 210 at 16 knots

Air temperature 26.0 ° C
Visibility: greater than 5.4 NM
Dewpoint 24.6 ° C

Date/timePositionNaut miles runAvg speedWind from/ knotsBaromVisibWave heightAir tempDewpointWater temp
2018-Jun-13 13:00N 02°36' W 080°00'395 8.9 210 / 16 5.4 26.024.6
2018-Jun-11 16:29N 09°11' W 079°52'3 7.2
2018-Jun-11 16:00N 09°12' W 079°55'1 2.4
2018-Jun-11 15:25N 09°13' W 079°56'0 0.1
2018-Jun-11 14:58N 09°13' W 079°56'0 0.1
2018-Jun-11 14:28N 09°13' W 079°56'0 0.1
2018-Jun-11 13:58N 09°13' W 079°56'0 0.0
2018-Jun-11 13:28N 09°13' W 079°56'0 0.0
2018-Jun-11 12:58N 09°13' W 079°56'0 0.0
2018-Jun-11 12:28N 09°13' W 079°56'0 0.0
2018-Jun-11 12:00N 09°13' W 079°56'0 0.5
2018-Jun-11 11:30N 09°14' W 079°56'2 5.0
2018-Jun-11 11:00N 09°16' W 079°55'0 0.6
2018-Jun-11 10:30N 09°16' W 079°55'0 0.4
2018-Jun-11 10:00N 09°17' W 079°55'0 0.3
2018-Jun-11 09:30N 09°17' W 079°55'1 1.4
2018-Jun-11 09:00N 09°17' W 079°55'3 5.1
2018-Jun-11 08:29N 09°20' W 079°55'2 5.2
2018-Jun-11 08:00N 09°22' W 079°56'0 0.1
2018-Jun-11 07:30N 09°22' W 079°56'0 0.0
2018-Jun-11 07:00N 09°22' W 079°56'0 0.0
2018-Jun-11 06:30N 09°22' W 079°56'0 0.0
2018-Jun-11 06:00N 09°22' W 079°56'0 0.0
2018-Jun-11 05:28N 09°22' W 079°56'0 0.0
2018-Jun-11 05:00N 09°22' W 079°56'0 0.0
2018-Jun-11 04:30N 09°22' W 079°56'0 0.0
2018-Jun-11 03:58N 09°22' W 079°56'0 0.1
2018-Jun-11 03:30N 09°22' W 079°56'0 0.0
2018-Jun-11 03:00N 09°22' W 079°56'0 0.0
2018-Jun-11 02:30N 09°22' W 079°56'0 0.0
2018-Jun-11 02:00N 09°22' W 079°56'0 0.0
2018-Jun-11 01:30N 09°22' W 079°56'0 0.1
2018-Jun-11 01:00N 09°22' W 079°56'0 0.1
2018-Jun-11 00:30N 09°22' W 079°56'0 0.0
2018-Jun-10 23:59N 09°22' W 079°56'0 0.0
2018-Jun-10 23:29N 09°22' W 079°56'0 0.1
2018-Jun-10 23:00N 09°22' W 079°56'0 0.1
2018-Jun-10 22:29N 09°22' W 079°56'0 0.0
2018-Jun-10 22:00N 09°22' W 079°56'0 0.0
2018-Jun-10 21:27N 09°22' W 079°56'0 0.0
2018-Jun-10 20:59N 09°22' W 079°56'0 0.0
2018-Jun-10 20:30N 09°22' W 079°56'0 0.1
2018-Jun-10 20:00N 09°22' W 079°56'0 0.0
2018-Jun-10 19:30N 09°22' W 079°56'0 0.1
2018-Jun-10 19:00N 09°22' W 079°56'0 0.0
2018-Jun-10 18:30N 09°22' W 079°56'0 0.1
2018-Jun-10 18:00N 09°22' W 079°56'0 0.5
2018-Jun-10 17:30N 09°23' W 079°55'2 4.1
2018-Jun-10 17:00N 09°25' W 079°55'2 3.1
2018-Jun-10 16:30N 09°26' W 079°56'0 0.2
2018-Jun-10 16:00N 09°26' W 079°56'0 0.0
2018-Jun-10 15:27N 09°26' W 079°56'0 0.0
2018-Jun-10 15:00N 09°26' W 079°56'0 0.0
2018-Jun-10 14:27N 09°26' W 079°56'0 0.0
2018-Jun-10 13:27N 09°26' W 079°56'0 0.0
2018-Jun-10 13:00N 09°26' W 079°56'0 0.0
2018-Jun-10 12:30N 09°26' W 079°56'0 0.0
2018-Jun-10 11:57N 09°26' W 079°56'0 0.0
2018-Jun-10 11:30N 09°26' W 079°56'0 0.0
2018-Jun-10 11:00N 09°26' W 079°56'0 0.0
2018-Jun-10 10:30N 09°26' W 079°56'0 0.0
2018-Jun-10 10:00N 09°26' W 079°56'0 0.0
2018-Jun-10 09:21N 09°26' W 079°56'0 0.1
2018-Jun-10 09:00N 09°26' W 079°56'0 0.5
2018-Jun-10 08:31N 09°26' W 079°56'2 4.4
2018-Jun-10 08:00N 09°28' W 079°55'5 9.9
2018-Jun-10 07:30N 09°33' W 079°53'510.7
2018-Jun-10 06:59N 09°38' W 079°52'46125.6
2018-Jun-09 13:00N 17°18' W 079°24'   230 / 221013.0 5.4 27.024.1
2018-Jun-06 13:00N 25°00' W 087°30'24110.1 190 / 121015.010.8 28.023.7
2018-Jun-05 13:00N 26°48' W 091°30'20113.0 190 / 141013.510.8 28.025.2
2018-Jun-04 21:33N 28°56' W 094°25'212.4
2018-Jun-04 21:23N 28°58' W 094°25'812.3
2018-Jun-04 20:46N 29°06' W 094°26'310.8
2018-Jun-04 20:30N 29°08' W 094°27'611.7
2018-Jun-04 20:00N 29°12' W 094°31'611.2
2018-Jun-04 19:30N 29°16' W 094°36'510.6
2018-Jun-04 19:00N 29°20' W 094°40'510.3
2018-Jun-04 18:31N 29°21' W 094°46'5 9.6
2018-Jun-04 18:00N 29°25' W 094°49'5 9.6
2018-Jun-04 17:30N 29°29' W 094°52'5 9.3
2018-Jun-04 16:59N 29°33' W 094°55'5 9.7
2018-Jun-04 16:30N 29°37' W 094°57'5 9.2
2018-Jun-04 16:00N 29°41' W 094°59'4 7.2
2018-Jun-04 15:27N 29°44' W 095°03'3 5.8
2018-Jun-04 14:57N 29°45' W 095°06'2 5.6
2018-Jun-04 14:30N 29°44' W 095°08'3 5.1
2018-Jun-04 13:58N 29°45' W 095°11'2 3.5
2018-Jun-04 13:18N 29°43' W 095°14'0 0.0
2018-Jun-04 11:39N 29°43' W 095°14'0 0.0
2018-Jun-04 03:36N 29°43' W 095°14'0 0.0
2018-Jun-04 02:45N 29°43' W 095°14'0 0.0
2018-Jun-03 14:12N 29°43' W 095°14'0 0.0
2018-Jun-03 13:57N 29°43' W 095°14'  

Dump ship's entire track history